Meteo Giornale » Osservazioni meteo Stati Uniti (USA) » Mobridge
ore: 16:52 - Osservazioni Meteo Mobridge
Lat. 45° 33' N Lon. 100° 24' W Alt. 522 metri s.l.m.
31 °C
Sereno
Temp. 24 Ore
11 °C
31 °C
Ovest
24 Km/h
Dew point 8 °C
Umidità 23 %
Visibilità 10 Km
Il sole sorge alle ore 07:02
Il sole tramonta alle ore 20:21
| Data e Ora | Cielo e Fenomeni | T °C | DP °C | Um. % | Pres. hPa | Vis. km | Vento km/h | |
|---|---|---|---|---|---|---|---|---|
| Oggi h: 16:52 | Sereno | 31 | 8 | 23 | 1011 | 10 | O 24 | |
| Oggi h: 15:52 | Sereno | 31 | 8 | 23 | 1011 | 10 | O/NO 13 | |
| Oggi h: 14:52 | Sereno | 29 | 6 | 23 | 1012 | 10 | SO 20.3 | |
| Oggi h: 13:52 | Sereno | 29 | 7 | 25 | 1012 | 10 | O/SO 18.5 | |
| Oggi h: 12:52 | Sereno | 26 | 12 | 41 | 1013 | 10 | S 11.1 | |
| Oggi h: 11:52 | Sereno | 23 | 13 | 53 | 1014 | 10 | S/SE 9.3 | |
| Oggi h: 10:52 | Sereno | 20 | 12 | 59 | 1014 | 10 | N 0 | |
| Oggi h: 09:52 | Sereno | 18 | 12 | 67 | 1014 | 10 | N 5.5 | |
| Oggi h: 08:52 | Sereno | 15 | 11 | 76 | 1014 | 10 | O/NO 7.4 | |
| Oggi h: 07:52 | Sereno | 12 | 11 | 93 | 1013 | 10 | O 7.4 | |
| Oggi h: 06:52 | Sereno | 12 | 11 | 93 | 1012 | 10 | NO 11.1 | |
| Oggi h: 05:52 | Sereno | 11 | 10 | 93 | 1011 | 10 | N 5.5 | |
| Oggi h: 04:52 | Sereno | 12 | 11 | 93 | 1011 | 10 | N 0 | |
| Oggi h: 03:52 | Sereno | 13 | 11 | 87 | 1011 | 10 | N 0 | |
| Oggi h: 02:52 | Sereno | 14 | 12 | 87 | 1011 | 10 | O/NO 18.5 | |
| Oggi h: 01:52 | Sereno | 14 | 12 | 87 | 1011 | 10 | O 11.1 | |
| Oggi h: 00:52 | Sereno | 16 | 13 | 82 | 1010 | 10 | O/NO 13 | |
| Ieri h: 23:52 | Molto Nuvoloso | 16 | 15 | 93 | 1010 | 10 | N 0 | |
| Ieri h: 23:02 | Molto Nuvoloso | 17 | 14 | 82 | 1009 | 10 | NO 13 | |
| Ieri h: 22:52 | Temporale nelle vicinanze | 17 | 14 | 82 | 1009 | 10 | N/NO 13 | |
| Ieri h: 22:47 | Temporale nelle vicinanze | 17 | 14 | 82 | 1009 | 10 | N/NO 13 | |
| Ieri h: 22:28 | Temporale | 17 | 14 | 82 | 1009 | 8 | N/NE 25.9 | |
| Ieri h: 22:21 | Temporale Foschia | 17 | 15 | 88 | 1009 | 2 | N 24 | |
| Ieri h: 22:08 | Temporale nelle vicinanze | 18 | 16 | 88 | 1009 | 10 | NO 18.5 | |
| Ieri h: 21:52 | Nuvoloso | 18 | 16 | 88 | 1009 | 10 | N/NO 18.5 | |
| Ieri h: 20:52 | Poco Nuvoloso | 18 | 16 | 88 | 1009 | 10 | N/NO 29.6 | |
| Ieri h: 20:43 | Nuvoloso | 18 | 16 | 88 | 1008 | 10 | N/NO 37 | |
| Ieri h: 20:27 | Temporale nelle vicinanze Pioggia | 19 | 17 | 88 | 1008 | 10 | N/NO 40.7 | |
| Ieri h: 20:21 | Temporale | 19 | 19 | 100 | 1008 | 13 | NO 40.7 | |
| Ieri h: 20:12 | Temporale | 20 | 18 | 88 | 1007 | 14 | N/NO 40.7 | |
| Ieri h: 19:52 | Temporale nelle vicinanze | 22 | 21 | 94 | 1006 | 10 | N 9.3 | |
| Ieri h: 18:52 | Sereno | 25 | 21 | 78 | 1004 | 10 | S 9.3 | |
| Ieri h: 17:52 | Sereno | 24 | 21 | 83 | 1005 | 10 | N 5.5 | |



